Terminal Aerodrome Forecast
Issued by NWS Austin/San Antonio, TX

Home | Current Version | Previous Version | Text Only | Print | Product List | Glossary On
Versions: 1 2 3 4 5 6 7 8 9 10 11 12 13
000
FTUS44 KEWX 192342
TAFSAT
TAF
KSAT 192342Z 2000/2106 13010KT P6SM SCT060 BKN250
     FM200600 12007KT P6SM BKN012
     FM201000 12005KT 3SM BR VCSH OVC006
     FM201600 15007KT P6SM VCSH BKN015
     FM201900 16009KT P6SM BKN035
     FM210500 15007KT P6SM OVC010=

USA.gov is the U.S. government's official web portal to all federal, state and local government web resources and services.